createdAt,value
2017-12-06T00:06:57.624Z,58.83
2017-12-06T00:09:47.756Z,58.16
2017-12-06T00:12:25.330Z,58.09
2017-12-06T00:15:01.563Z,58.06
2017-12-06T00:17:36.367Z,58.38
2017-12-06T00:20:07.301Z,57.80
2017-12-06T00:23:21.123Z,57.79
2017-12-06T00:25:52.105Z,57.61
2017-12-06T00:28:26.909Z,58.22
2017-12-06T00:30:59.346Z,58.93
2017-12-06T00:33:34.306Z,59.92
2017-12-06T00:36:08.526Z,60.42
2017-12-06T00:41:24.952Z,58.22
2017-12-06T00:43:54.694Z,58.59
2017-12-06T00:46:27.881Z,58.47
2017-12-06T00:56:37.593Z,59.37
2017-12-06T00:59:11.440Z,59.18
2017-12-06T01:01:42.874Z,59.40
2017-12-06T01:04:21.170Z,59.23
2017-12-06T01:07:03.454Z,59.87
2017-12-06T01:09:34.436Z,61.39
2017-12-06T01:12:07.742Z,61.43
2017-12-06T01:14:41.484Z,60.49
2017-12-06T01:17:17.991Z,60.33
2017-12-06T01:19:51.866Z,60.13
2017-12-06T01:22:22.434Z,60.38
2017-12-06T01:25:02.091Z,60.12
2017-12-06T01:27:36.479Z,59.80
2017-12-06T01:30:08.000Z,59.32
2017-12-06T01:32:39.779Z,59.41
2017-12-06T01:35:13.876Z,59.57
2017-12-06T01:37:46.342Z,59.86
2017-12-06T01:40:24.358Z,60.57
2017-12-06T01:42:58.038Z,60.22
2017-12-06T01:45:33.741Z,59.72
2017-12-06T01:48:06.064Z,60.15
2017-12-06T01:50:38.542Z,60.33
2017-12-06T01:53:10.579Z,60.15
2017-12-06T01:55:49.271Z,60.11
2017-12-06T02:01:04.887Z,60.43
2017-12-06T02:03:44.236Z,60.32
2017-12-06T02:06:37.331Z,59.83
2017-12-06T02:09:10.881Z,60.09
2017-12-06T02:11:42.464Z,60.11
2017-12-06T02:14:14.245Z,60.86
2017-12-06T02:16:46.048Z,60.63
2017-12-06T02:19:17.834Z,60.79
2017-12-06T02:21:49.365Z,60.02
2017-12-06T02:24:23.071Z,59.48
2017-12-06T02:26:53.768Z,58.99
2017-12-06T02:29:26.585Z,58.70
2017-12-06T02:32:04.203Z,58.47
2017-12-06T02:34:42.318Z,59.15
2017-12-06T02:37:12.612Z,58.62
2017-12-06T02:40:02.041Z,59.19
2017-12-06T02:42:49.711Z,58.89
2017-12-06T02:45:36.270Z,58.66
2017-12-06T02:48:08.755Z,59.31
2017-12-06T02:50:46.053Z,59.71
2017-12-06T02:53:22.249Z,60.18
2017-12-06T02:55:58.188Z,59.25
2017-12-06T02:58:30.208Z,59.19
2017-12-06T03:01:08.711Z,60.86
2017-12-06T03:03:57.982Z,60.81
2017-12-06T03:12:24.436Z,60.53
2017-12-06T03:14:56.129Z,60.31
2017-12-06T03:17:28.414Z,60.62
2017-12-06T03:20:00.369Z,60.59
2017-12-06T03:22:32.281Z,60.35
2017-12-06T03:25:05.835Z,60.33
2017-12-06T03:27:38.153Z,60.36
2017-12-06T03:30:16.476Z,60.07
2017-12-06T03:32:49.060Z,60.80
2017-12-06T03:35:22.599Z,60.59
2017-12-06T03:37:56.859Z,60.33
2017-12-06T03:40:38.657Z,60.16
2017-12-06T03:43:13.867Z,59.87
2017-12-06T03:45:48.248Z,60.42
2017-12-06T03:48:29.787Z,60.78
2017-12-06T03:54:08.883Z,60.44
2017-12-06T03:59:32.435Z,59.77
2017-12-06T04:02:06.620Z,60.73
2017-12-06T04:05:00.380Z,61.20
2017-12-06T04:07:30.247Z,61.37
2017-12-06T04:10:00.424Z,61.51
2017-12-06T04:12:30.328Z,60.95
2017-12-06T04:15:00.277Z,60.87
2017-12-06T04:17:30.850Z,61.27
2017-12-06T04:20:04.234Z,61.24
2017-12-06T04:22:34.533Z,61.95
2017-12-06T04:25:04.635Z,62.30
2017-12-06T04:27:34.341Z,62.49
2017-12-06T04:30:05.096Z,62.41
2017-12-06T04:32:36.169Z,62.20
2017-12-06T04:35:17.629Z,61.67
2017-12-06T04:37:47.561Z,61.39
2017-12-06T04:40:19.185Z,61.06
2017-12-06T04:42:52.027Z,61.11
2017-12-06T04:45:24.407Z,60.31
2017-12-06T04:47:54.578Z,60.23
2017-12-06T04:50:24.538Z,60.69
2017-12-06T04:52:54.253Z,61.02
2017-12-06T04:55:23.857Z,60.50
2017-12-06T04:57:56.313Z,60.68
2017-12-06T05:00:35.269Z,60.68
2017-12-06T05:03:05.123Z,60.39
2017-12-06T05:05:37.698Z,60.98
2017-12-06T05:08:08.369Z,60.83
2017-12-06T05:10:38.070Z,60.94
2017-12-06T05:13:09.010Z,61.71
2017-12-06T05:15:38.972Z,61.74
2017-12-06T05:18:08.901Z,61.71
2017-12-06T05:20:39.652Z,62.46
2017-12-06T05:23:14.035Z,61.42
2017-12-06T05:25:43.961Z,60.92
2017-12-06T05:28:14.290Z,61.02
2017-12-06T05:30:46.136Z,62.14
2017-12-06T05:33:15.961Z,62.28
2017-12-06T05:35:47.011Z,61.68
2017-12-06T05:38:19.919Z,61.22
2017-12-06T05:40:51.042Z,61.19
2017-12-06T05:43:22.312Z,61.60
2017-12-06T05:46:09.806Z,63.92
2017-12-06T05:48:40.963Z,65.34
2017-12-06T05:54:21.628Z,63.04
2017-12-06T06:00:38.075Z,63.64
2017-12-06T06:03:11.334Z,63.07
2017-12-06T06:05:42.712Z,62.35
2017-12-06T06:08:15.383Z,61.80
2017-12-06T06:10:45.651Z,62.31
2017-12-06T06:13:18.093Z,60.86
2017-12-06T06:15:48.069Z,61.03
2017-12-06T06:18:27.250Z,61.37
2017-12-06T06:20:56.993Z,61.18
2017-12-06T06:23:34.484Z,61.14
2017-12-06T06:26:05.365Z,62.15
2017-12-06T06:31:29.945Z,62.11
2017-12-06T06:34:05.188Z,61.58
2017-12-06T06:36:40.244Z,61.57
2017-12-06T06:39:10.583Z,61.38
2017-12-06T06:41:44.840Z,61.60
2017-12-06T06:44:14.552Z,61.87
2017-12-06T06:46:46.328Z,61.25
2017-12-06T06:49:16.952Z,61.30
2017-12-06T06:51:47.423Z,61.14
2017-12-06T06:54:32.818Z,60.70
2017-12-06T06:57:03.092Z,61.32
2017-12-06T06:59:38.854Z,61.40
2017-12-06T07:02:14.429Z,61.19
2017-12-06T07:04:49.030Z,61.02
2017-12-06T07:07:21.019Z,60.88
2017-12-06T07:09:55.466Z,60.48
2017-12-06T07:15:08.877Z,62.53
2017-12-06T07:17:38.416Z,62.31
2017-12-06T07:20:09.508Z,61.78
2017-12-06T07:22:40.591Z,61.50
2017-12-06T07:25:10.830Z,61.19
2017-12-06T07:27:48.290Z,60.53
2017-12-06T07:30:33.243Z,60.35
2017-12-06T07:33:05.236Z,60.73
2017-12-06T07:35:37.912Z,60.89
2017-12-06T07:38:08.091Z,59.96
2017-12-06T07:40:39.286Z,60.40
2017-12-06T07:43:10.473Z,60.16
2017-12-06T07:45:41.648Z,59.53
2017-12-06T07:48:12.951Z,59.38
2017-12-06T07:50:49.890Z,59.40
2017-12-06T07:53:19.537Z,59.70
2017-12-06T07:55:51.138Z,59.44
2017-12-06T07:58:26.890Z,59.52
2017-12-06T08:00:58.341Z,59.82
2017-12-06T08:03:31.452Z,59.67
2017-12-06T08:06:02.611Z,59.00
2017-12-06T08:08:34.206Z,58.77
2017-12-06T08:11:04.265Z,58.49
2017-12-06T08:13:34.827Z,58.46
2017-12-06T08:16:08.339Z,57.85
2017-12-06T08:18:40.240Z,57.40
2017-12-06T08:21:21.782Z,57.65
2017-12-06T08:23:52.183Z,57.39
2017-12-06T08:26:23.096Z,57.00
2017-12-06T08:28:54.494Z,57.40
2017-12-06T08:31:24.135Z,57.41
2017-12-06T08:34:00.297Z,57.14
2017-12-06T08:36:30.299Z,58.07
2017-12-06T08:39:00.942Z,57.32
2017-12-06T08:41:32.540Z,57.15
2017-12-06T08:44:05.711Z,56.76
2017-12-06T08:46:37.232Z,56.66
2017-12-06T08:49:07.169Z,56.08
2017-12-06T08:51:38.975Z,55.65
2017-12-06T08:54:09.149Z,54.83
2017-12-06T08:56:40.412Z,54.62
2017-12-06T08:59:10.266Z,54.77
2017-12-06T09:01:41.123Z,54.84
2017-12-06T09:04:12.422Z,53.71
2017-12-06T09:06:42.238Z,53.62
2017-12-06T09:09:13.986Z,52.82
2017-12-06T09:11:44.018Z,53.37
2017-12-06T09:14:13.916Z,52.66
2017-12-06T09:16:46.882Z,52.03
2017-12-06T09:19:16.459Z,52.42
2017-12-06T09:21:46.083Z,52.69
2017-12-06T09:24:16.870Z,52.53
2017-12-06T09:26:46.305Z,52.39
2017-12-06T09:29:17.319Z,52.03
2017-12-06T09:31:47.087Z,50.23
2017-12-06T09:34:17.714Z,49.83
2017-12-06T09:36:48.544Z,50.24
2017-12-06T09:39:19.575Z,50.05
2017-12-06T09:41:50.208Z,50.11
2017-12-06T09:44:20.855Z,49.96
2017-12-06T09:46:50.600Z,49.41
2017-12-06T09:49:22.757Z,49.51
2017-12-06T09:51:52.916Z,49.08
2017-12-06T09:54:26.972Z,48.94
2017-12-06T09:56:56.799Z,47.83
2017-12-06T09:59:27.239Z,48.18
2017-12-06T10:01:57.824Z,48.14
2017-12-06T10:04:27.609Z,48.45
2017-12-06T10:06:58.671Z,48.26
2017-12-06T10:09:28.890Z,48.14
2017-12-06T10:12:01.141Z,47.76
2017-12-06T10:14:31.463Z,47.26
2017-12-06T10:17:01.916Z,47.27
2017-12-06T10:19:40.268Z,46.89
2017-12-06T10:22:10.855Z,46.84
2017-12-06T10:24:57.037Z,46.67
2017-12-06T10:27:27.168Z,47.15
2017-12-06T10:29:57.212Z,47.36
2017-12-06T10:32:27.909Z,46.97
2017-12-06T10:34:58.449Z,46.07
2017-12-06T10:37:27.939Z,45.71
2017-12-06T10:39:58.231Z,45.49
2017-12-06T10:46:13.823Z,44.59
2017-12-06T10:48:45.942Z,44.76
2017-12-06T10:51:16.009Z,44.45
2017-12-06T10:53:47.836Z,44.14
2017-12-06T10:56:18.294Z,43.55
2017-12-06T10:58:51.311Z,45.03
2017-12-06T11:01:23.024Z,43.98
2017-12-06T11:03:55.557Z,44.66
2017-12-06T11:06:26.379Z,44.01
2017-12-06T11:08:56.407Z,44.98
2017-12-06T11:11:26.919Z,44.34
2017-12-06T11:22:51.052Z,43.68
2017-12-06T11:25:26.454Z,42.42
2017-12-06T11:27:56.397Z,42.86
2017-12-06T11:30:34.422Z,42.17
2017-12-06T11:33:06.267Z,41.71
2017-12-06T11:35:36.199Z,43.56
2017-12-06T17:16:48.104Z,59.71
2017-12-06T17:19:19.951Z,58.65
2017-12-06T17:21:51.694Z,58.05
2017-12-06T17:24:24.005Z,58.54
2017-12-06T17:26:55.090Z,59.17
2017-12-06T17:29:42.511Z,58.79
2017-12-06T17:32:13.208Z,58.63
2017-12-06T17:34:45.672Z,58.07
2017-12-06T17:37:16.863Z,57.48
2017-12-06T17:39:47.528Z,58.27
2017-12-06T17:42:18.255Z,57.96
2017-12-06T17:44:50.363Z,57.95
2017-12-06T17:47:21.666Z,58.63
2017-12-06T17:49:56.138Z,58.28
2017-12-06T17:52:33.519Z,57.85
2017-12-06T17:55:07.455Z,58.27
2017-12-06T17:57:40.228Z,58.76
2017-12-06T18:00:12.303Z,58.87
2017-12-06T18:02:44.008Z,59.67
2017-12-06T18:05:13.788Z,59.38
2017-12-06T18:07:48.835Z,59.41
2017-12-06T18:10:19.619Z,58.63
2017-12-06T18:12:49.721Z,59.64
2017-12-06T18:15:19.577Z,58.94
2017-12-06T18:17:54.278Z,58.36
2017-12-06T18:20:26.760Z,58.21
2017-12-06T18:23:01.502Z,58.20
2017-12-06T18:25:33.097Z,59.15
2017-12-06T18:28:08.398Z,59.20
2017-12-06T18:30:39.632Z,59.30
2017-12-06T18:33:12.760Z,59.25
2017-12-06T18:35:45.762Z,59.73
2017-12-06T18:38:18.927Z,58.60
2017-12-06T18:40:51.440Z,59.44
2017-12-06T18:43:23.059Z,61.45
2017-12-06T18:45:53.668Z,61.52
2017-12-06T18:48:24.162Z,60.06
2017-12-06T18:50:56.777Z,59.47
2017-12-06T18:53:26.301Z,59.92
2017-12-06T18:55:58.722Z,58.82
2017-12-06T18:58:34.420Z,58.87
2017-12-06T19:01:04.349Z,59.79
2017-12-06T19:03:36.436Z,59.64
2017-12-06T19:06:14.229Z,59.53
2017-12-06T19:08:43.729Z,59.47
2017-12-06T19:11:19.999Z,58.75
2017-12-06T19:13:50.969Z,59.41
2017-12-06T19:16:23.014Z,59.79
2017-12-06T19:18:53.920Z,59.63
2017-12-06T19:21:25.859Z,60.03
2017-12-06T19:24:02.870Z,60.37
2017-12-06T19:26:34.569Z,60.22
2017-12-06T19:29:04.889Z,60.06
2017-12-06T19:31:35.615Z,60.62
2017-12-06T19:34:06.385Z,60.33
2017-12-06T19:36:36.502Z,60.40
2017-12-06T19:39:06.241Z,60.59
2017-12-06T19:41:37.499Z,60.95
2017-12-06T19:44:09.507Z,60.43
2017-12-06T19:46:39.533Z,60.78
2017-12-06T19:49:12.571Z,59.92
2017-12-06T19:51:43.422Z,60.44
2017-12-06T19:54:15.260Z,60.27
2017-12-06T19:56:46.755Z,60.18
2017-12-06T19:59:16.477Z,59.89
2017-12-06T20:01:48.778Z,60.66
2017-12-06T20:04:19.393Z,61.62
2017-12-06T20:06:49.763Z,62.08
2017-12-06T20:09:19.781Z,60.76
2017-12-06T20:11:49.402Z,61.46
2017-12-06T20:14:19.717Z,60.60
2017-12-06T20:16:49.968Z,60.09
2017-12-06T20:19:21.525Z,59.09
2017-12-06T20:21:51.854Z,60.61
2017-12-06T20:24:22.116Z,60.83
2017-12-06T20:26:52.127Z,60.83
2017-12-06T20:29:22.790Z,61.20
2017-12-06T20:31:53.247Z,60.89
2017-12-06T20:34:23.833Z,61.36
2017-12-06T20:36:53.371Z,61.74
2017-12-06T20:39:24.996Z,61.98
2017-12-06T20:41:56.134Z,62.34
2017-12-06T20:44:26.876Z,62.39
2017-12-06T20:46:57.067Z,62.19
2017-12-06T20:49:27.155Z,62.03
2017-12-06T20:51:56.685Z,62.47
2017-12-06T20:54:26.876Z,62.66
2017-12-06T20:56:56.382Z,61.78
2017-12-06T20:59:26.410Z,62.71
2017-12-06T21:01:56.233Z,63.04
2017-12-06T21:04:26.466Z,63.84
2017-12-06T21:06:55.956Z,62.95
2017-12-06T21:09:26.152Z,62.39
2017-12-06T21:11:57.037Z,62.00
2017-12-06T21:14:26.837Z,63.03
2017-12-06T21:16:58.333Z,62.52
2017-12-06T21:19:28.069Z,62.14
2017-12-06T21:21:58.242Z,62.22
2017-12-06T21:24:29.818Z,62.19
2017-12-06T21:27:00.550Z,61.87
2017-12-06T21:29:35.415Z,62.07
2017-12-06T21:32:05.548Z,61.44
2017-12-06T21:34:38.583Z,62.08
2017-12-06T21:37:08.776Z,62.37
2017-12-06T21:39:42.451Z,61.39
2017-12-06T21:42:14.996Z,61.81
2017-12-06T21:44:45.845Z,62.09
2017-12-06T21:47:16.811Z,61.93
2017-12-06T21:49:50.295Z,61.81
2017-12-06T21:52:20.927Z,61.77
2017-12-06T21:54:54.267Z,61.67
2017-12-06T21:57:24.728Z,61.35
2017-12-06T21:59:57.497Z,60.86
2017-12-06T22:02:27.734Z,61.41
2017-12-06T22:05:04.768Z,61.49
2017-12-06T22:07:41.160Z,61.42
2017-12-06T22:10:10.931Z,62.05
2017-12-06T22:12:43.288Z,62.01
2017-12-06T22:15:14.096Z,61.95
2017-12-06T22:17:44.987Z,62.34
2017-12-06T22:20:16.203Z,61.69
2017-12-06T22:22:47.908Z,61.73
2017-12-06T22:25:20.304Z,61.27
2017-12-06T22:27:51.279Z,60.55
2017-12-06T22:30:23.784Z,60.52
2017-12-06T22:32:54.851Z,60.51
2017-12-06T22:35:27.811Z,60.84
2017-12-06T22:37:59.355Z,60.42
2017-12-06T22:40:31.536Z,61.92
2017-12-06T22:43:05.347Z,61.57
2017-12-06T22:45:37.479Z,62.05
2017-12-06T22:48:11.802Z,63.65
2017-12-06T22:50:42.571Z,63.40
2017-12-06T22:53:16.423Z,63.07
2017-12-06T22:55:46.823Z,63.04
2017-12-06T22:58:18.867Z,62.76
2017-12-06T23:00:50.587Z,62.69
2017-12-06T23:03:26.224Z,62.30
2017-12-06T23:05:58.414Z,61.09
2017-12-06T23:08:31.926Z,61.91
2017-12-06T23:11:12.093Z,61.72
2017-12-06T23:13:47.880Z,61.97
2017-12-06T23:16:27.130Z,61.40
2017-12-06T23:19:01.314Z,61.91
2017-12-06T23:21:47.124Z,60.52
2017-12-06T23:24:25.132Z,61.23
2017-12-06T23:27:16.743Z,61.33
2017-12-06T23:29:53.909Z,61.90
2017-12-06T23:32:29.364Z,61.80
2017-12-06T23:35:29.441Z,61.16
2017-12-06T23:38:16.584Z,62.36
2017-12-06T23:40:57.835Z,63.63
2017-12-06T23:47:24.806Z,62.52
2017-12-06T23:50:02.180Z,62.45
2017-12-06T23:52:37.363Z,61.96
2017-12-06T23:57:53.281Z,62.85
